createdAt,value
2022-10-04T00:00:44.502Z,6.63
2022-10-04T00:03:18.518Z,7.00
2022-10-04T00:05:50.256Z,8.30
2022-10-04T00:08:42.247Z,9.38
2022-10-04T00:11:18.403Z,8.27
2022-10-04T00:13:55.654Z,8.15
2022-10-04T00:16:35.873Z,7.57
2022-10-04T00:19:14.591Z,8.90
2022-10-04T00:22:00.068Z,9.75
2022-10-04T00:24:29.148Z,9.90
2022-10-04T00:27:25.110Z,10.75
2022-10-04T00:30:03.767Z,12.10
2022-10-04T00:32:42.758Z,11.90
2022-10-04T00:35:27.167Z,11.10
2022-10-04T00:38:26.120Z,10.00
2022-10-04T00:41:00.936Z,10.07
2022-10-04T00:43:36.485Z,9.50
2022-10-04T00:46:07.554Z,11.10
2022-10-04T00:48:51.514Z,10.57
2022-10-04T00:51:38.137Z,10.98
2022-10-04T00:54:18.149Z,9.85
2022-10-04T00:57:04.915Z,10.05
2022-10-04T00:59:34.379Z,10.68
2022-10-04T01:02:23.156Z,10.43
2022-10-04T01:05:04.130Z,10.02
2022-10-04T01:07:35.369Z,10.50
2022-10-04T01:12:40.785Z,8.70
2022-10-04T01:15:14.215Z,9.70
2022-10-04T01:17:40.576Z,8.40
2022-10-04T01:20:34.720Z,8.07
2022-10-04T01:23:03.711Z,10.25
2022-10-04T01:25:44.920Z,10.25
2022-10-04T01:28:11.371Z,8.50
2022-10-04T01:30:37.837Z,10.32
2022-10-04T01:33:06.814Z,9.57
2022-10-04T01:35:35.406Z,9.98
2022-10-04T01:38:07.186Z,9.98
2022-10-04T01:40:36.454Z,8.70
2022-10-04T01:43:09.115Z,8.73
2022-10-04T01:45:40.560Z,8.25
2022-10-04T01:48:12.747Z,7.60
2022-10-04T01:50:59.074Z,8.45
2022-10-04T01:53:32.026Z,8.30
2022-10-04T01:56:09.192Z,8.55
2022-10-04T01:58:49.022Z,9.20
2022-10-04T02:01:35.416Z,8.15
2022-10-04T02:04:04.880Z,7.75
2022-10-04T02:06:38.749Z,8.93
2022-10-04T02:09:22.206Z,8.45
2022-10-04T02:11:52.583Z,8.02
2022-10-04T02:14:22.927Z,7.97
2022-10-04T02:16:52.323Z,8.50
2022-10-04T02:19:19.623Z,8.82
2022-10-04T02:21:47.702Z,8.18
2022-10-04T02:24:14.927Z,9.35
2022-10-04T02:26:41.498Z,8.27
2022-10-04T02:29:09.624Z,9.40
2022-10-04T02:31:57.130Z,8.88
2022-10-04T02:34:23.614Z,11.38
2022-10-04T02:36:51.675Z,10.02
2022-10-04T02:39:30.184Z,9.25
2022-10-04T02:42:02.685Z,9.80
2022-10-04T02:44:57.540Z,9.93
2022-10-04T02:47:29.556Z,8.43
2022-10-04T02:50:00.520Z,10.00
2022-10-04T02:52:42.283Z,9.55
2022-10-04T02:55:24.571Z,9.75
2022-10-04T02:57:52.408Z,8.80
2022-10-04T03:00:31.000Z,8.50
2022-10-04T03:03:36.881Z,8.55
2022-10-04T03:06:17.889Z,8.30
2022-10-04T03:08:50.161Z,9.05
2022-10-04T03:11:20.917Z,8.70
2022-10-04T03:13:52.198Z,8.32
2022-10-04T03:18:48.122Z,7.72
2022-10-04T03:21:17.117Z,6.85
2022-10-04T03:23:44.900Z,7.75
2022-10-04T03:26:14.214Z,8.18
2022-10-04T03:28:40.784Z,7.75
2022-10-04T03:31:07.477Z,7.32
2022-10-04T03:33:34.115Z,8.25
2022-10-04T03:36:01.651Z,7.22
2022-10-04T03:38:28.993Z,7.20
2022-10-04T03:40:59.218Z,6.60
2022-10-04T03:43:31.346Z,6.63
2022-10-04T03:46:00.334Z,7.22
2022-10-04T03:48:52.053Z,6.40
2022-10-04T03:51:26.388Z,7.63
2022-10-04T03:53:57.171Z,7.47
2022-10-04T03:56:29.514Z,8.23
2022-10-04T03:58:56.954Z,7.95
2022-10-04T04:01:40.728Z,9.02
2022-10-04T04:04:31.110Z,8.20
2022-10-04T04:07:07.266Z,9.95
2022-10-04T04:09:51.863Z,8.55
2022-10-04T04:12:44.276Z,8.13
2022-10-04T04:15:13.641Z,10.35
2022-10-04T04:17:47.224Z,10.88
2022-10-04T04:20:31.546Z,8.68
2022-10-04T04:23:02.341Z,8.70
2022-10-04T04:25:32.466Z,8.63
2022-10-04T04:28:20.819Z,8.48
2022-10-04T04:30:53.344Z,8.90
2022-10-04T04:33:41.460Z,7.97
2022-10-04T04:36:12.276Z,8.68
2022-10-04T04:38:57.746Z,12.75
2022-10-04T04:41:26.200Z,20.83
2022-10-04T04:43:52.704Z,15.23
2022-10-04T04:46:27.616Z,9.48
2022-10-04T04:49:02.326Z,9.95
2022-10-04T04:51:31.513Z,16.55
2022-10-04T04:54:01.123Z,13.88
2022-10-04T04:56:30.531Z,11.70
2022-10-04T04:59:03.122Z,9.45
2022-10-04T05:01:42.776Z,8.82
2022-10-04T05:04:09.283Z,9.45
2022-10-04T05:06:37.872Z,8.45
2022-10-04T05:09:05.492Z,9.07
2022-10-04T05:11:38.829Z,8.45
2022-10-04T05:14:05.844Z,10.27
2022-10-04T05:16:35.270Z,8.48
2022-10-04T05:19:14.633Z,9.55
2022-10-04T05:21:46.643Z,9.10
2022-10-04T05:24:24.216Z,8.60
2022-10-04T05:26:55.031Z,11.57
2022-10-04T05:29:26.751Z,11.10
2022-10-04T05:32:03.389Z,11.05
2022-10-04T05:34:36.188Z,11.13
2022-10-04T05:37:20.660Z,10.48
2022-10-04T05:39:55.644Z,9.63
2022-10-04T05:42:26.891Z,10.27
2022-10-04T05:47:27.541Z,11.65
2022-10-04T05:49:59.140Z,11.07
2022-10-04T05:52:27.946Z,10.88
2022-10-04T05:55:12.932Z,11.32
2022-10-04T05:58:19.145Z,10.90
2022-10-04T06:01:00.973Z,10.93
2022-10-04T06:03:48.094Z,10.10
2022-10-04T06:06:42.091Z,11.25
2022-10-04T06:09:34.406Z,12.10
2022-10-04T06:12:30.065Z,12.95
2022-10-04T06:15:34.094Z,10.32
2022-10-04T06:18:25.354Z,9.60
2022-10-04T06:21:19.288Z,10.38
2022-10-04T06:24:05.253Z,10.52
2022-10-04T06:26:48.159Z,9.93
2022-10-04T06:29:20.567Z,9.13
2022-10-04T06:32:08.899Z,8.70
2022-10-04T06:34:56.687Z,7.72
2022-10-04T06:38:02.246Z,7.75
2022-10-04T06:40:38.562Z,8.30
2022-10-04T06:43:21.646Z,7.07
2022-10-04T06:46:12.698Z,7.40
2022-10-04T06:49:03.758Z,6.93
2022-10-04T06:52:00.149Z,8.05
2022-10-04T06:54:55.504Z,7.97
2022-10-04T06:58:00.039Z,8.13
2022-10-04T07:00:29.769Z,8.32
2022-10-04T07:03:14.527Z,8.68
2022-10-04T07:05:59.386Z,9.05
2022-10-04T07:08:49.856Z,8.77
2022-10-04T07:11:25.372Z,10.55
2022-10-04T07:14:15.110Z,10.60
2022-10-04T07:16:57.495Z,10.60
2022-10-04T07:19:27.921Z,7.13
2022-10-04T07:22:06.261Z,8.02
2022-10-04T07:24:51.752Z,10.18
2022-10-04T07:28:14.186Z,9.27
2022-10-04T07:30:48.165Z,8.27
2022-10-04T07:33:20.707Z,9.60
2022-10-04T07:36:06.312Z,8.60
2022-10-04T07:38:37.336Z,7.97
2022-10-04T07:41:13.418Z,10.10
2022-10-04T07:43:56.162Z,8.93
2022-10-04T07:46:47.531Z,9.43
2022-10-04T07:49:23.576Z,10.90
2022-10-04T07:52:25.571Z,11.55
2022-10-04T07:55:05.774Z,10.35
2022-10-04T07:57:54.079Z,10.73
2022-10-04T08:00:36.958Z,10.20
2022-10-04T08:03:18.982Z,10.13
2022-10-04T08:05:55.070Z,9.82
2022-10-04T08:08:41.731Z,9.98
2022-10-04T08:11:33.562Z,8.85
2022-10-04T08:14:13.190Z,10.05
2022-10-04T08:17:20.859Z,10.93
2022-10-04T08:20:02.972Z,10.25
2022-10-04T08:22:41.075Z,10.43
2022-10-04T08:25:29.408Z,9.63
2022-10-04T08:28:23.010Z,9.70
2022-10-04T08:31:20.878Z,10.07
2022-10-04T08:34:02.318Z,10.60
2022-10-04T08:38:59.864Z,11.63
2022-10-04T08:44:56.759Z,9.77
2022-10-04T08:47:57.655Z,10.80
2022-10-04T08:50:48.983Z,10.63
2022-10-04T08:53:45.789Z,10.20
2022-10-04T08:56:40.426Z,10.65
2022-10-04T08:59:48.433Z,10.00
2022-10-04T09:02:47.867Z,9.95
2022-10-04T09:05:39.212Z,10.90
2022-10-04T09:08:59.956Z,11.63
2022-10-04T09:11:44.578Z,10.85
2022-10-04T09:14:43.025Z,12.43
2022-10-04T09:17:22.662Z,12.77
2022-10-04T09:20:36.787Z,12.55
2022-10-04T09:23:08.993Z,14.07
2022-10-04T09:25:41.825Z,14.77
2022-10-04T09:28:45.066Z,12.57
2022-10-04T09:31:39.332Z,13.10
2022-10-04T09:34:37.241Z,14.55
2022-10-04T09:37:29.079Z,14.07
2022-10-04T09:42:58.931Z,14.95
2022-10-04T09:45:37.940Z,14.43
2022-10-04T09:48:25.378Z,13.93
2022-10-04T09:51:13.709Z,13.82
2022-10-04T09:53:55.774Z,14.75
2022-10-04T09:57:01.133Z,15.23
2022-10-04T09:59:46.243Z,14.43
2022-10-04T10:02:46.806Z,14.85
2022-10-04T10:05:28.371Z,15.97
2022-10-04T10:08:42.639Z,16.15
2022-10-04T10:11:39.788Z,16.15
2022-10-04T10:14:17.998Z,18.63
2022-10-04T10:17:20.558Z,16.88
2022-10-04T10:20:09.932Z,15.82
2022-10-04T10:23:00.396Z,16.55
2022-10-04T10:25:59.173Z,16.90
2022-10-04T10:28:51.384Z,15.60
2022-10-04T10:31:35.173Z,16.85
2022-10-04T10:34:17.600Z,15.25
2022-10-04T10:37:08.961Z,16.55
2022-10-04T10:39:53.592Z,15.50
2022-10-04T10:42:39.676Z,15.10
2022-10-04T10:45:45.724Z,15.32
2022-10-04T10:48:47.780Z,15.07
2022-10-04T10:51:31.319Z,13.63
2022-10-04T10:54:16.582Z,13.85
2022-10-04T10:57:14.030Z,14.98
2022-10-04T11:00:02.279Z,11.38
2022-10-04T11:03:13.227Z,13.55
2022-10-04T11:06:12.048Z,12.38
2022-10-04T11:09:09.155Z,11.90
2022-10-04T11:12:13.187Z,12.13
2022-10-04T11:15:04.895Z,12.45
2022-10-04T11:17:46.730Z,11.50
2022-10-04T11:20:24.629Z,10.90
2022-10-04T11:23:09.784Z,11.07
2022-10-04T11:25:44.892Z,10.90
2022-10-04T11:28:26.746Z,10.50
2022-10-04T11:30:59.067Z,10.95
2022-10-04T11:34:03.204Z,11.05
2022-10-04T11:36:48.222Z,9.75
2022-10-04T11:39:58.366Z,8.95
2022-10-04T11:42:49.315Z,9.40
2022-10-04T11:45:24.091Z,10.30
2022-10-04T11:48:11.348Z,9.38
2022-10-04T11:50:40.898Z,8.55
2022-10-04T11:53:13.858Z,9.75
2022-10-04T11:56:04.414Z,9.73
2022-10-04T11:58:50.406Z,10.30
2022-10-04T12:01:32.129Z,8.75
2022-10-04T12:04:19.140Z,8.77
2022-10-04T12:07:23.018Z,7.30
2022-10-04T12:10:03.133Z,8.38
2022-10-04T12:12:38.766Z,7.25
2022-10-04T12:15:11.926Z,7.28
2022-10-04T12:18:15.614Z,7.00
2022-10-04T12:21:20.903Z,7.38
2022-10-04T12:23:56.386Z,6.05
2022-10-04T12:26:43.544Z,5.15
2022-10-04T12:29:38.104Z,5.65
2022-10-04T12:32:10.616Z,4.50
2022-10-04T12:35:22.451Z,4.13
2022-10-04T12:38:15.484Z,5.13
2022-10-04T12:41:18.987Z,4.80
2022-10-04T12:44:10.776Z,5.10
2022-10-04T12:46:54.632Z,5.20
2022-10-04T12:49:46.671Z,5.07
2022-10-04T12:52:19.788Z,4.93
2022-10-04T12:54:55.707Z,3.92
2022-10-04T12:57:24.950Z,4.75
2022-10-04T12:59:54.908Z,5.22
2022-10-04T13:02:56.070Z,5.53
2022-10-04T13:05:37.467Z,4.53
2022-10-04T13:08:22.684Z,5.10
2022-10-04T13:11:26.886Z,5.97
2022-10-04T13:13:53.254Z,6.72
2022-10-04T13:19:28.114Z,5.90
2022-10-04T13:22:54.726Z,6.25
2022-10-04T13:25:30.060Z,6.20
2022-10-04T13:28:20.580Z,6.32
2022-10-04T13:31:05.895Z,6.00
2022-10-04T13:34:17.132Z,5.88
2022-10-04T13:36:57.040Z,6.10
2022-10-04T13:39:23.385Z,5.65
2022-10-04T13:42:12.101Z,5.45
2022-10-04T13:44:49.115Z,5.53
2022-10-04T13:47:41.586Z,5.55
2022-10-04T13:50:31.531Z,5.32
2022-10-04T13:53:34.952Z,5.72
2022-10-04T13:56:27.853Z,5.22
2022-10-04T13:59:15.655Z,5.88
2022-10-04T14:02:27.660Z,6.07
2022-10-04T14:05:10.330Z,6.70
2022-10-04T14:07:55.472Z,6.80
2022-10-04T14:10:43.569Z,7.20
2022-10-04T14:13:48.775Z,6.28
2022-10-04T14:16:39.576Z,6.25
2022-10-04T14:19:34.569Z,6.50
2022-10-04T14:22:07.152Z,7.03
2022-10-04T14:24:36.774Z,7.75
2022-10-04T14:27:31.636Z,5.97
2022-10-04T14:30:08.005Z,6.57
2022-10-04T14:32:52.933Z,5.82
2022-10-04T14:35:27.629Z,5.93
2022-10-04T14:38:15.000Z,6.22
2022-10-04T14:40:49.988Z,6.47
2022-10-04T14:43:54.680Z,6.13
2022-10-04T14:46:55.235Z,5.68
2022-10-04T14:49:43.641Z,6.00
2022-10-04T14:52:33.921Z,5.72
2022-10-04T14:55:26.165Z,5.15
2022-10-04T14:58:05.168Z,5.40
2022-10-04T15:00:59.637Z,5.45
2022-10-04T15:03:36.107Z,5.75
2022-10-04T15:06:10.441Z,5.53
2022-10-04T15:08:51.386Z,5.32
2022-10-04T15:11:32.548Z,6.03
2022-10-04T15:14:03.176Z,6.85
2022-10-04T15:16:45.478Z,6.63
2022-10-04T15:19:21.108Z,5.50
2022-10-04T15:22:02.555Z,5.35
2022-10-04T15:24:46.822Z,5.28
2022-10-04T15:27:22.725Z,4.90
2022-10-04T15:30:22.104Z,4.90
2022-10-04T15:33:11.438Z,5.28
2022-10-04T15:35:56.791Z,5.30
2022-10-04T15:38:35.184Z,4.57
2022-10-04T15:41:07.551Z,5.03
2022-10-04T15:43:43.215Z,4.90
2022-10-04T15:46:35.155Z,5.60
2022-10-04T15:49:38.345Z,5.22
2022-10-04T15:52:10.789Z,4.88
2022-10-04T15:54:56.030Z,5.22
2022-10-04T15:57:42.199Z,4.90
2022-10-04T16:00:13.795Z,5.50
2022-10-04T16:03:14.161Z,4.72
2022-10-04T16:05:59.980Z,4.90
2022-10-04T16:08:47.117Z,4.97
2022-10-04T16:11:41.618Z,4.93
2022-10-04T16:14:46.940Z,4.60
2022-10-04T16:17:22.161Z,5.38
2022-10-04T16:20:26.029Z,4.57
2022-10-04T16:23:21.877Z,6.45
2022-10-04T16:25:48.891Z,5.20
2022-10-04T16:28:31.458Z,5.45
2022-10-04T16:31:20.103Z,5.20
2022-10-04T16:34:07.110Z,6.20
2022-10-04T16:36:56.592Z,5.28
2022-10-04T16:39:55.451Z,5.75
2022-10-04T16:42:44.915Z,5.40
2022-10-04T16:45:11.830Z,6.63
2022-10-04T16:47:47.248Z,5.82
2022-10-04T16:50:33.908Z,6.22
2022-10-04T16:53:34.351Z,6.82
2022-10-04T16:56:14.327Z,7.55
2022-10-04T16:59:00.984Z,6.95
2022-10-04T17:02:05.896Z,7.75
2022-10-04T17:04:39.246Z,7.18
2022-10-04T17:07:27.409Z,8.07
2022-10-04T17:10:04.423Z,8.52
2022-10-04T17:12:54.100Z,8.30
2022-10-04T17:15:20.466Z,8.57
2022-10-04T17:17:51.116Z,8.70
2022-10-04T17:20:41.855Z,8.32
2022-10-04T17:23:59.083Z,9.80
2022-10-04T17:27:05.697Z,9.50
2022-10-04T17:29:57.307Z,9.73
2022-10-04T17:32:32.683Z,11.55
2022-10-04T17:35:17.136Z,10.48
2022-10-04T17:37:57.615Z,12.00
2022-10-04T17:40:35.372Z,11.43
2022-10-04T17:43:33.891Z,10.18
2022-10-04T17:46:09.920Z,10.82
2022-10-04T17:49:04.860Z,10.85
2022-10-04T17:52:02.990Z,12.40
2022-10-04T17:55:01.716Z,12.57
2022-10-04T17:57:42.568Z,11.98
2022-10-04T18:00:10.032Z,12.88
2022-10-04T18:03:02.461Z,12.15
2022-10-04T18:05:41.135Z,13.07
2022-10-04T18:08:07.465Z,12.55
2022-10-04T18:10:38.522Z,13.02
2022-10-04T18:13:15.551Z,13.18
2022-10-04T18:15:54.678Z,13.18
2022-10-04T18:18:30.612Z,12.38
2022-10-04T18:21:05.429Z,12.93
2022-10-04T18:23:39.294Z,14.40
2022-10-04T18:26:17.364Z,20.63
2022-10-04T18:28:44.861Z,33.35
2022-10-04T18:31:36.569Z,34.17
2022-10-04T18:34:28.837Z,33.33
2022-10-04T18:37:05.680Z,31.60
2022-10-04T18:39:43.165Z,28.88
2022-10-04T18:42:29.305Z,19.45
2022-10-04T18:45:01.188Z,19.35
2022-10-04T18:47:36.937Z,15.88
2022-10-04T18:50:29.108Z,13.70
2022-10-04T18:53:37.183Z,12.15
2022-10-04T18:56:12.355Z,12.43
2022-10-04T18:59:11.651Z,10.50
2022-10-04T19:01:56.988Z,11.77
2022-10-04T19:04:46.402Z,11.35
2022-10-04T19:07:32.575Z,11.63
2022-10-04T19:10:03.357Z,13.50
2022-10-04T19:12:42.408Z,11.48
2022-10-04T19:15:26.395Z,12.45
2022-10-04T19:18:09.934Z,12.80
2022-10-04T19:20:51.739Z,12.57
2022-10-04T19:23:21.099Z,15.18
2022-10-04T19:26:26.311Z,11.13
2022-10-04T19:28:39.835Z,9.70
2022-10-04T19:31:06.367Z,9.27
2022-10-04T19:33:45.798Z,10.05
2022-10-04T19:36:27.582Z,9.70
2022-10-04T19:39:03.028Z,9.65
2022-10-04T19:41:48.488Z,9.13
2022-10-04T19:44:31.724Z,9.55
2022-10-04T19:47:13.155Z,9.15
2022-10-04T19:50:00.929Z,9.05
2022-10-04T19:52:53.772Z,9.75
2022-10-04T19:55:28.632Z,9.85
2022-10-04T19:58:16.383Z,11.57
2022-10-04T20:00:42.860Z,9.32
2022-10-04T20:03:13.077Z,10.05
2022-10-04T20:09:56.177Z,7.70
2022-10-04T20:12:37.678Z,7.97
2022-10-04T20:15:17.090Z,7.38
2022-10-04T20:17:45.562Z,7.90
2022-10-04T20:20:36.984Z,7.22
2022-10-04T20:25:45.686Z,8.02
2022-10-04T20:28:27.497Z,7.63
2022-10-04T20:30:58.759Z,7.80
2022-10-04T20:33:34.296Z,7.90
2022-10-04T20:36:13.093Z,8.15
2022-10-04T20:38:48.610Z,7.90
2022-10-04T20:41:50.277Z,7.95
2022-10-04T20:44:55.284Z,7.28
2022-10-04T20:47:37.961Z,8.07
2022-10-04T20:50:12.533Z,7.50
2022-10-04T20:52:45.422Z,7.75
2022-10-04T20:55:39.991Z,8.52
2022-10-04T20:58:24.945Z,9.60
2022-10-04T21:00:56.852Z,10.18
2022-10-04T21:03:24.420Z,9.93
2022-10-04T21:06:03.841Z,11.10
2022-10-04T21:08:30.624Z,10.50
2022-10-04T21:11:08.913Z,10.68
2022-10-04T21:13:46.730Z,10.77
2022-10-04T21:16:42.544Z,11.02
2022-10-04T21:19:35.509Z,10.68
2022-10-04T21:22:05.713Z,10.75
2022-10-04T21:24:50.043Z,13.50
2022-10-04T21:27:29.844Z,12.02
2022-10-04T21:29:57.261Z,11.27
2022-10-04T21:32:25.414Z,11.23
2022-10-04T21:34:53.905Z,11.20
2022-10-04T21:37:21.316Z,11.68
2022-10-04T21:39:47.902Z,12.18
2022-10-04T21:42:14.556Z,12.88
2022-10-04T21:44:40.922Z,13.43
2022-10-04T21:47:07.298Z,12.10
2022-10-04T21:49:33.654Z,9.95
2022-10-04T21:52:00.092Z,9.80
2022-10-04T21:54:26.428Z,8.82
2022-10-04T21:56:53.936Z,9.05
2022-10-04T21:59:20.994Z,9.43
2022-10-04T22:01:47.389Z,11.32
2022-10-04T22:04:13.843Z,10.35
2022-10-04T22:06:40.427Z,10.55
2022-10-04T22:09:06.866Z,13.63
2022-10-04T22:11:33.472Z,13.75
2022-10-04T22:14:00.087Z,16.33
2022-10-04T22:16:26.597Z,14.32
2022-10-04T22:18:53.124Z,18.35
2022-10-04T22:21:19.514Z,10.80
2022-10-04T22:23:45.934Z,9.23
2022-10-04T22:26:21.591Z,9.07
2022-10-04T22:28:50.509Z,11.38
2022-10-04T22:31:20.090Z,9.38
2022-10-04T22:33:49.032Z,7.80
2022-10-04T22:36:22.487Z,11.10
2022-10-04T22:39:09.158Z,10.82
2022-10-04T22:41:40.425Z,7.57
2022-10-04T22:46:42.291Z,12.60
2022-10-04T22:49:11.334Z,8.88
2022-10-04T22:51:40.184Z,8.80
2022-10-04T22:54:15.355Z,8.00
2022-10-04T22:56:42.102Z,7.38
2022-10-04T22:59:10.898Z,7.03
2022-10-04T23:01:37.834Z,7.03
2022-10-04T23:04:11.107Z,7.97
2022-10-04T23:06:37.531Z,6.63
2022-10-04T23:09:04.017Z,7.10
2022-10-04T23:11:33.632Z,6.53
2022-10-04T23:14:00.046Z,6.55
2022-10-04T23:16:26.551Z,6.70
2022-10-04T23:19:02.326Z,8.38
2022-10-04T23:21:31.897Z,9.80
2022-10-04T23:24:05.863Z,10.18
2022-10-04T23:26:38.721Z,11.43
2022-10-04T23:29:26.435Z,10.75
2022-10-04T23:31:54.095Z,9.95
2022-10-04T23:34:26.564Z,10.40
2022-10-04T23:36:53.036Z,10.45
2022-10-04T23:39:26.050Z,9.95
2022-10-04T23:41:54.863Z,10.40
2022-10-04T23:44:33.977Z,9.32
2022-10-04T23:47:01.212Z,10.05
2022-10-04T23:49:28.100Z,9.90
2022-10-04T23:52:00.894Z,9.25
2022-10-04T23:54:27.636Z,9.27
2022-10-04T23:56:54.111Z,9.23
2022-10-04T23:59:23.811Z,9.05
